sensor_id;sensor_type;location;lat;lon;timestamp;temperature;humidity
22706;DHT22;11520;51.198;4.468;2023-02-15T00:00:06;5.50;99.90
22706;DHT22;11520;51.198;4.468;2023-02-15T00:05:01;5.40;99.90
22706;DHT22;11520;51.198;4.468;2023-02-15T00:17:20;5.20;99.90
22706;DHT22;11520;51.198;4.468;2023-02-15T00:19:46;5.10;99.90
22706;DHT22;11520;51.198;4.468;2023-02-15T00:22:12;5.20;99.90
22706;DHT22;11520;51.198;4.468;2023-02-15T00:24:44;5.20;99.90
22706;DHT22;11520;51.198;4.468;2023-02-15T00:27:09;5.20;99.90
22706;DHT22;11520;51.198;4.468;2023-02-15T00:29:35;5.10;99.90
22706;DHT22;11520;51.198;4.468;2023-02-15T00:32:01;5.10;99.90
22706;DHT22;11520;51.198;4.468;2023-02-15T00:34:28;5.20;99.90
22706;DHT22;11520;51.198;4.468;2023-02-15T00:36:54;5.20;99.90
22706;DHT22;11520;51.198;4.468;2023-02-15T00:39:21;5.10;99.90
22706;DHT22;11520;51.198;4.468;2023-02-15T00:41:47;5.10;99.90
22706;DHT22;11520;51.198;4.468;2023-02-15T00:44:14;5.10;99.90
22706;DHT22;11520;51.198;4.468;2023-02-15T00:46:40;5.10;99.90
22706;DHT22;11520;51.198;4.468;2023-02-15T00:49:06;5.00;99.90
22706;DHT22;11520;51.198;4.468;2023-02-15T00:51:33;4.90;99.90
22706;DHT22;11520;51.198;4.468;2023-02-15T00:53:59;4.90;99.90
22706;DHT22;11520;51.198;4.468;2023-02-15T00:56:30;4.90;99.90
22706;DHT22;11520;51.198;4.468;2023-02-15T00:58:56;5.00;99.90
22706;DHT22;11520;51.198;4.468;2023-02-15T01:01:22;4.80;99.90
22706;DHT22;11520;51.198;4.468;2023-02-15T01:03:49;4.80;99.90
22706;DHT22;11520;51.198;4.468;2023-02-15T01:06:15;4.80;99.90
22706;DHT22;11520;51.198;4.468;2023-02-15T01:08:41;4.80;99.90
22706;DHT22;11520;51.198;4.468;2023-02-15T01:11:11;4.70;99.90
22706;DHT22;11520;51.198;4.468;2023-02-15T01:13:37;4.70;99.90
22706;DHT22;11520;51.198;4.468;2023-02-15T01:16:04;4.70;99.90
22706;DHT22;11520;51.198;4.468;2023-02-15T01:18:30;4.70;99.90
22706;DHT22;11520;51.198;4.468;2023-02-15T01:20:56;4.80;99.90
22706;DHT22;11520;51.198;4.468;2023-02-15T01:23:23;4.70;99.90
22706;DHT22;11520;51.198;4.468;2023-02-15T01:25:50;4.70;99.90
22706;DHT22;11520;51.198;4.468;2023-02-15T01:28:16;4.70;99.90
22706;DHT22;11520;51.198;4.468;2023-02-15T01:30:42;4.70;99.90
22706;DHT22;11520;51.198;4.468;2023-02-15T01:33:10;4.70;99.90
22706;DHT22;11520;51.198;4.468;2023-02-15T01:35:43;4.70;99.90
22706;DHT22;11520;51.198;4.468;2023-02-15T01:38:10;4.70;99.90
22706;DHT22;11520;51.198;4.468;2023-02-15T01:40:36;4.60;99.90
22706;DHT22;11520;51.198;4.468;2023-02-15T01:43:01;4.70;99.90
22706;DHT22;11520;51.198;4.468;2023-02-15T01:45:31;4.70;99.90
22706;DHT22;11520;51.198;4.468;2023-02-15T01:50:52;4.60;99.90
22706;DHT22;11520;51.198;4.468;2023-02-15T01:53:32;4.60;99.90
22706;DHT22;11520;51.198;4.468;2023-02-15T01:56:06;4.60;99.90
22706;DHT22;11520;51.198;4.468;2023-02-15T01:58:34;4.50;99.90
22706;DHT22;11520;51.198;4.468;2023-02-15T02:01:02;4.60;99.90
22706;DHT22;11520;51.198;4.468;2023-02-15T02:11:14;4.30;99.90
22706;DHT22;11520;51.198;4.468;2023-02-15T02:13:41;4.30;99.90
22706;DHT22;11520;51.198;4.468;2023-02-15T02:30:09;4.10;99.90
22706;DHT22;11520;51.198;4.468;2023-02-15T02:49:38;4.00;99.90
22706;DHT22;11520;51.198;4.468;2023-02-15T02:52:32;3.90;99.90
22706;DHT22;11520;51.198;4.468;2023-02-15T02:54:53;4.00;99.90
22706;DHT22;11520;51.198;4.468;2023-02-15T02:57:20;4.00;99.90
22706;DHT22;11520;51.198;4.468;2023-02-15T02:59:49;4.00;99.90
22706;DHT22;11520;51.198;4.468;2023-02-15T03:02:23;3.90;99.90
22706;DHT22;11520;51.198;4.468;2023-02-15T03:04:57;3.90;99.90
22706;DHT22;11520;51.198;4.468;2023-02-15T03:07:30;3.90;99.90
22706;DHT22;11520;51.198;4.468;2023-02-15T03:09:58;3.90;99.90
22706;DHT22;11520;51.198;4.468;2023-02-15T03:12:38;4.10;99.90
22706;DHT22;11520;51.198;4.468;2023-02-15T03:15:16;3.90;99.90
22706;DHT22;11520;51.198;4.468;2023-02-15T03:17:46;3.90;99.90
22706;DHT22;11520;51.198;4.468;2023-02-15T03:20:18;3.90;99.90
22706;DHT22;11520;51.198;4.468;2023-02-15T03:22:51;3.90;99.90
22706;DHT22;11520;51.198;4.468;2023-02-15T03:25:28;3.80;99.90
22706;DHT22;11520;51.198;4.468;2023-02-15T03:28:00;3.70;99.90
22706;DHT22;11520;51.198;4.468;2023-02-15T03:30:29;3.70;99.90
22706;DHT22;11520;51.198;4.468;2023-02-15T03:32:58;3.70;99.90
22706;DHT22;11520;51.198;4.468;2023-02-15T03:35:26;3.70;99.90
22706;DHT22;11520;51.198;4.468;2023-02-15T03:38:01;3.60;99.90
22706;DHT22;11520;51.198;4.468;2023-02-15T03:40:42;3.60;99.90
22706;DHT22;11520;51.198;4.468;2023-02-15T03:48:56;3.70;99.90
22706;DHT22;11520;51.198;4.468;2023-02-15T03:51:28;3.60;99.90
22706;DHT22;11520;51.198;4.468;2023-02-15T03:54:26;3.70;99.90
22706;DHT22;11520;51.198;4.468;2023-02-15T03:57:21;3.60;99.90
22706;DHT22;11520;51.198;4.468;2023-02-15T04:00:15;3.60;99.90
22706;DHT22;11520;51.198;4.468;2023-02-15T04:05:33;3.40;99.90
22706;DHT22;11520;51.198;4.468;2023-02-15T04:07:58;3.40;99.90
22706;DHT22;11520;51.198;4.468;2023-02-15T04:13:10;3.40;99.90
22706;DHT22;11520;51.198;4.468;2023-02-15T04:15:36;3.30;99.90
22706;DHT22;11520;51.198;4.468;2023-02-15T04:18:20;3.30;99.90
22706;DHT22;11520;51.198;4.468;2023-02-15T04:20:46;3.40;99.90
22706;DHT22;11520;51.198;4.468;2023-02-15T04:23:31;3.30;99.90
22706;DHT22;11520;51.198;4.468;2023-02-15T04:26:16;3.30;99.90
22706;DHT22;11520;51.198;4.468;2023-02-15T04:28:52;3.30;99.90
22706;DHT22;11520;51.198;4.468;2023-02-15T04:31:17;3.30;99.90
22706;DHT22;11520;51.198;4.468;2023-02-15T04:33:43;3.40;99.90
22706;DHT22;11520;51.198;4.468;2023-02-15T04:36:10;3.30;99.90
22706;DHT22;11520;51.198;4.468;2023-02-15T04:38:35;3.30;99.90
22706;DHT22;11520;51.198;4.468;2023-02-15T04:41:01;3.30;99.90
22706;DHT22;11520;51.198;4.468;2023-02-15T04:43:26;3.30;99.90
22706;DHT22;11520;51.198;4.468;2023-02-15T04:45:53;3.40;99.90
22706;DHT22;11520;51.198;4.468;2023-02-15T04:48:19;3.40;99.90
22706;DHT22;11520;51.198;4.468;2023-02-15T04:50:46;3.40;99.90
22706;DHT22;11520;51.198;4.468;2023-02-15T04:53:11;3.40;99.90
22706;DHT22;11520;51.198;4.468;2023-02-15T04:55:37;3.40;99.90
22706;DHT22;11520;51.198;4.468;2023-02-15T04:58:06;3.30;99.90
22706;DHT22;11520;51.198;4.468;2023-02-15T05:00:32;3.30;99.90
22706;DHT22;11520;51.198;4.468;2023-02-15T05:02:58;3.20;99.90
22706;DHT22;11520;51.198;4.468;2023-02-15T05:05:24;3.30;99.90
22706;DHT22;11520;51.198;4.468;2023-02-15T05:07:50;3.30;99.90
22706;DHT22;11520;51.198;4.468;2023-02-15T05:10:17;3.30;99.90
22706;DHT22;11520;51.198;4.468;2023-02-15T05:12:43;3.20;99.90
22706;DHT22;11520;51.198;4.468;2023-02-15T05:15:09;3.10;99.90
22706;DHT22;11520;51.198;4.468;2023-02-15T05:17:36;3.20;99.90
22706;DHT22;11520;51.198;4.468;2023-02-15T05:20:02;3.10;99.90
22706;DHT22;11520;51.198;4.468;2023-02-15T05:22:30;3.00;99.90
22706;DHT22;11520;51.198;4.468;2023-02-15T05:24:56;3.00;99.90
22706;DHT22;11520;51.198;4.468;2023-02-15T05:27:40;3.00;99.90
22706;DHT22;11520;51.198;4.468;2023-02-15T05:30:26;2.90;99.90
22706;DHT22;11520;51.198;4.468;2023-02-15T05:32:53;2.90;99.90
22706;DHT22;11520;51.198;4.468;2023-02-15T05:35:22;2.80;99.90
22706;DHT22;11520;51.198;4.468;2023-02-15T05:37:49;2.90;99.90
22706;DHT22;11520;51.198;4.468;2023-02-15T05:40:16;3.00;99.90
22706;DHT22;11520;51.198;4.468;2023-02-15T05:42:43;3.00;99.90
22706;DHT22;11520;51.198;4.468;2023-02-15T05:45:09;3.00;99.90
22706;DHT22;11520;51.198;4.468;2023-02-15T05:47:37;3.10;99.90
22706;DHT22;11520;51.198;4.468;2023-02-15T05:50:05;3.00;99.90
22706;DHT22;11520;51.198;4.468;2023-02-15T05:52:31;3.00;99.90
22706;DHT22;11520;51.198;4.468;2023-02-15T05:54:58;3.10;99.90
22706;DHT22;11520;51.198;4.468;2023-02-15T05:57:28;3.00;99.90
22706;DHT22;11520;51.198;4.468;2023-02-15T06:00:03;3.00;99.90
22706;DHT22;11520;51.198;4.468;2023-02-15T06:02:33;3.10;99.90
22706;DHT22;11520;51.198;4.468;2023-02-15T06:12:20;3.00;99.90
22706;DHT22;11520;51.198;4.468;2023-02-15T06:19:38;3.00;99.90
22706;DHT22;11520;51.198;4.468;2023-02-15T06:27:02;2.90;99.90
22706;DHT22;11520;51.198;4.468;2023-02-15T06:31:58;2.90;99.90
22706;DHT22;11520;51.198;4.468;2023-02-15T07:01:14;2.60;99.90
22706;DHT22;11520;51.198;4.468;2023-02-15T07:03:39;2.70;99.90
22706;DHT22;11520;51.198;4.468;2023-02-15T07:06:05;2.80;99.90
22706;DHT22;11520;51.198;4.468;2023-02-15T07:08:34;2.80;99.90
22706;DHT22;11520;51.198;4.468;2023-02-15T07:10:59;2.90;99.90
22706;DHT22;11520;51.198;4.468;2023-02-15T07:13:46;3.00;99.90
22706;DHT22;11520;51.198;4.468;2023-02-15T07:16:12;3.10;99.90
22706;DHT22;11520;51.198;4.468;2023-02-15T07:18:39;3.20;99.90
22706;DHT22;11520;51.198;4.468;2023-02-15T07:21:06;3.30;99.90
22706;DHT22;11520;51.198;4.468;2023-02-15T07:23:35;3.30;99.90
22706;DHT22;11520;51.198;4.468;2023-02-15T07:26:01;3.30;99.90
22706;DHT22;11520;51.198;4.468;2023-02-15T07:28:27;3.40;99.90
22706;DHT22;11520;51.198;4.468;2023-02-15T07:30:54;3.50;99.90
22706;DHT22;11520;51.198;4.468;2023-02-15T07:33:20;3.60;99.90
22706;DHT22;11520;51.198;4.468;2023-02-15T07:35:59;3.70;99.90
22706;DHT22;11520;51.198;4.468;2023-02-15T07:38:34;7.10;99.90
22706;DHT22;11520;51.198;4.468;2023-02-15T07:41:07;4.00;99.90
22706;DHT22;11520;51.198;4.468;2023-02-15T07:43:35;4.30;99.90
22706;DHT22;11520;51.198;4.468;2023-02-15T07:46:04;4.30;99.90
22706;DHT22;11520;51.198;4.468;2023-02-15T07:48:30;4.50;99.90
22706;DHT22;11520;51.198;4.468;2023-02-15T07:51:00;4.60;99.90
22706;DHT22;11520;51.198;4.468;2023-02-15T07:53:26;4.70;99.90
22706;DHT22;11520;51.198;4.468;2023-02-15T07:55:54;4.80;99.90
22706;DHT22;11520;51.198;4.468;2023-02-15T07:58:23;4.90;99.90
22706;DHT22;11520;51.198;4.468;2023-02-15T08:01:08;5.00;99.90
22706;DHT22;11520;51.198;4.468;2023-02-15T08:03:34;5.00;99.90
22706;DHT22;11520;51.198;4.468;2023-02-15T08:06:00;5.20;99.90
22706;DHT22;11520;51.198;4.468;2023-02-15T08:08:32;5.40;99.90
22706;DHT22;11520;51.198;4.468;2023-02-15T08:11:05;5.50;99.90
22706;DHT22;11520;51.198;4.468;2023-02-15T08:13:52;5.50;99.90
22706;DHT22;11520;51.198;4.468;2023-02-15T08:16:32;5.50;99.90
22706;DHT22;11520;51.198;4.468;2023-02-15T08:19:00;5.60;99.90
22706;DHT22;11520;51.198;4.468;2023-02-15T08:21:28;5.80;99.90
22706;DHT22;11520;51.198;4.468;2023-02-15T08:23:57;6.30;99.90
22706;DHT22;11520;51.198;4.468;2023-02-15T08:26:23;6.60;99.90
22706;DHT22;11520;51.198;4.468;2023-02-15T08:28:51;6.70;99.90
22706;DHT22;11520;51.198;4.468;2023-02-15T08:31:17;7.70;99.90
22706;DHT22;11520;51.198;4.468;2023-02-15T08:33:44;7.80;99.90
22706;DHT22;11520;51.198;4.468;2023-02-15T08:36:12;8.20;99.90
22706;DHT22;11520;51.198;4.468;2023-02-15T08:38:39;8.60;99.90
22706;DHT22;11520;51.198;4.468;2023-02-15T08:41:13;8.80;99.90
22706;DHT22;11520;51.198;4.468;2023-02-15T08:43:39;9.20;99.90
22706;DHT22;11520;51.198;4.468;2023-02-15T08:46:06;9.60;99.90
22706;DHT22;11520;51.198;4.468;2023-02-15T08:48:32;10.10;99.90
22706;DHT22;11520;51.198;4.468;2023-02-15T08:55:57;11.40;99.90
22706;DHT22;11520;51.198;4.468;2023-02-15T08:58:24;11.70;99.90
22706;DHT22;11520;51.198;4.468;2023-02-15T09:00:53;11.70;99.90
22706;DHT22;11520;51.198;4.468;2023-02-15T09:03:18;13.00;99.90
22706;DHT22;11520;51.198;4.468;2023-02-15T09:05:46;13.00;99.90
22706;DHT22;11520;51.198;4.468;2023-02-15T09:08:13;13.20;99.90
22706;DHT22;11520;51.198;4.468;2023-02-15T09:10:38;13.00;99.90
22706;DHT22;11520;51.198;4.468;2023-02-15T09:13:06;12.50;99.90
22706;DHT22;11520;51.198;4.468;2023-02-15T09:15:33;11.90;99.90
22706;DHT22;11520;51.198;4.468;2023-02-15T09:18:00;11.00;99.90
22706;DHT22;11520;51.198;4.468;2023-02-15T09:20:29;10.50;99.90
22706;DHT22;11520;51.198;4.468;2023-02-15T09:22:57;10.00;99.90
22706;DHT22;11520;51.198;4.468;2023-02-15T09:25:22;9.80;99.90
22706;DHT22;11520;51.198;4.468;2023-02-15T09:27:48;9.70;99.90
22706;DHT22;11520;51.198;4.468;2023-02-15T09:30:14;9.80;99.90
22706;DHT22;11520;51.198;4.468;2023-02-15T09:32:40;10.40;99.90
22706;DHT22;11520;51.198;4.468;2023-02-15T09:35:06;10.80;99.90
22706;DHT22;11520;51.198;4.468;2023-02-15T09:37:31;11.30;99.90
22706;DHT22;11520;51.198;4.468;2023-02-15T09:39:58;11.60;99.90
22706;DHT22;11520;51.198;4.468;2023-02-15T10:00:59;17.10;99.90
22706;DHT22;11520;51.198;4.468;2023-02-15T10:06:38;18.30;99.90
22706;DHT22;11520;51.198;4.468;2023-02-15T10:12:32;16.90;99.90
22706;DHT22;11520;51.198;4.468;2023-02-15T10:21:04;16.40;99.90
22706;DHT22;11520;51.198;4.468;2023-02-15T10:26:54;17.40;99.90
22706;DHT22;11520;51.198;4.468;2023-02-15T10:29:37;17.40;99.90
22706;DHT22;11520;51.198;4.468;2023-02-15T10:32:22;17.90;99.90
22706;DHT22;11520;51.198;4.468;2023-02-15T10:43:09;20.40;93.80
22706;DHT22;11520;51.198;4.468;2023-02-15T10:48:42;20.60;90.00
22706;DHT22;11520;51.198;4.468;2023-02-15T10:51:19;20.50;90.10
22706;DHT22;11520;51.198;4.468;2023-02-15T11:01:51;21.10;82.70
22706;DHT22;11520;51.198;4.468;2023-02-15T11:04:39;20.90;83.70
22706;DHT22;11520;51.198;4.468;2023-02-15T11:09:52;21.60;82.40
22706;DHT22;11520;51.198;4.468;2023-02-15T11:12:23;22.00;79.10
22706;DHT22;11520;51.198;4.468;2023-02-15T11:14:57;22.00;78.70
22706;DHT22;11520;51.198;4.468;2023-02-15T11:17:55;22.60;77.30
22706;DHT22;11520;51.198;4.468;2023-02-15T11:20:37;22.80;75.40
22706;DHT22;11520;51.198;4.468;2023-02-15T11:23:13;22.60;73.70
22706;DHT22;11520;51.198;4.468;2023-02-15T11:25:54;21.70;74.20
22706;DHT22;11520;51.198;4.468;2023-02-15T11:28:45;21.40;76.10
22706;DHT22;11520;51.198;4.468;2023-02-15T11:31:23;20.50;78.00
22706;DHT22;11520;51.198;4.468;2023-02-15T11:33:58;19.60;79.20
22706;DHT22;11520;51.198;4.468;2023-02-15T11:36:28;19.60;82.10
22706;DHT22;11520;51.198;4.468;2023-02-15T11:38:59;19.40;82.20
22706;DHT22;11520;51.198;4.468;2023-02-15T11:41:29;18.80;84.50
22706;DHT22;11520;51.198;4.468;2023-02-15T11:46:28;17.60;88.50
22706;DHT22;11520;51.198;4.468;2023-02-15T11:48:54;17.20;89.20
22706;DHT22;11520;51.198;4.468;2023-02-15T11:51:22;17.30;90.10
22706;DHT22;11520;51.198;4.468;2023-02-15T11:53:48;17.20;90.70
22706;DHT22;11520;51.198;4.468;2023-02-15T11:56:18;17.30;90.30
22706;DHT22;11520;51.198;4.468;2023-02-15T11:59:03;17.50;91.00
22706;DHT22;11520;51.198;4.468;2023-02-15T12:01:40;17.50;90.40
22706;DHT22;11520;51.198;4.468;2023-02-15T12:07:13;17.00;91.00
22706;DHT22;11520;51.198;4.468;2023-02-15T12:10:02;16.90;92.30
22706;DHT22;11520;51.198;4.468;2023-02-15T12:12:34;17.10;92.20
22706;DHT22;11520;51.198;4.468;2023-02-15T12:15:09;16.80;92.10
22706;DHT22;11520;51.198;4.468;2023-02-15T12:17:50;16.80;92.50
22706;DHT22;11520;51.198;4.468;2023-02-15T12:22:53;16.30;93.50
22706;DHT22;11520;51.198;4.468;2023-02-15T12:25:50;16.30;93.90
22706;DHT22;11520;51.198;4.468;2023-02-15T12:31:30;16.50;93.80
22706;DHT22;11520;51.198;4.468;2023-02-15T12:33:55;16.70;94.10
22706;DHT22;11520;51.198;4.468;2023-02-15T12:36:26;17.00;92.90
22706;DHT22;11520;51.198;4.468;2023-02-15T12:41:56;16.00;94.90
22706;DHT22;11520;51.198;4.468;2023-02-15T12:44:26;15.80;95.70
22706;DHT22;11520;51.198;4.468;2023-02-15T12:49:27;15.40;97.30
22706;DHT22;11520;51.198;4.468;2023-02-15T12:52:01;15.40;97.60
22706;DHT22;11520;51.198;4.468;2023-02-15T12:54:39;15.30;98.00
22706;DHT22;11520;51.198;4.468;2023-02-15T12:57:31;15.80;97.80
22706;DHT22;11520;51.198;4.468;2023-02-15T13:00:05;16.10;97.00
22706;DHT22;11520;51.198;4.468;2023-02-15T13:05:22;16.30;96.30
22706;DHT22;11520;51.198;4.468;2023-02-15T13:08:03;16.50;95.60
22706;DHT22;11520;51.198;4.468;2023-02-15T13:10:37;16.50;96.20
22706;DHT22;11520;51.198;4.468;2023-02-15T13:13:17;16.80;96.00
22706;DHT22;11520;51.198;4.468;2023-02-15T13:15:51;17.20;95.10
22706;DHT22;11520;51.198;4.468;2023-02-15T13:18:28;17.30;95.10
22706;DHT22;11520;51.198;4.468;2023-02-15T13:20:56;17.30;95.20
22706;DHT22;11520;51.198;4.468;2023-02-15T13:23:30;17.00;94.70
22706;DHT22;11520;51.198;4.468;2023-02-15T13:25:59;17.00;94.70
22706;DHT22;11520;51.198;4.468;2023-02-15T13:28:44;17.30;95.10
22706;DHT22;11520;51.198;4.468;2023-02-15T13:31:14;16.70;95.00
22706;DHT22;11520;51.198;4.468;2023-02-15T13:33:43;16.30;96.30
22706;DHT22;11520;51.198;4.468;2023-02-15T13:52:22;14.80;99.90
22706;DHT22;11520;51.198;4.468;2023-02-15T13:55:29;14.80;99.90
22706;DHT22;11520;51.198;4.468;2023-02-15T14:00:52;14.70;99.90
22706;DHT22;11520;51.198;4.468;2023-02-15T14:11:55;14.50;99.90
22706;DHT22;11520;51.198;4.468;2023-02-15T14:20:04;14.50;99.90
22706;DHT22;11520;51.198;4.468;2023-02-15T14:22:42;14.60;99.90
22706;DHT22;11520;51.198;4.468;2023-02-15T14:25:27;14.50;99.90
22706;DHT22;11520;51.198;4.468;2023-02-15T14:30:38;14.50;99.90
22706;DHT22;11520;51.198;4.468;2023-02-15T14:35:55;14.50;99.90
22706;DHT22;11520;51.198;4.468;2023-02-15T14:41:41;14.40;99.90
22706;DHT22;11520;51.198;4.468;2023-02-15T14:46:56;14.40;99.90
22706;DHT22;11520;51.198;4.468;2023-02-15T14:49:27;14.30;99.90
22706;DHT22;11520;51.198;4.468;2023-02-15T14:52:01;14.30;99.90
22706;DHT22;11520;51.198;4.468;2023-02-15T14:59:58;14.10;99.90
22706;DHT22;11520;51.198;4.468;2023-02-15T15:02:48;13.90;99.90
22706;DHT22;11520;51.198;4.468;2023-02-15T15:05:51;13.90;99.90
22706;DHT22;11520;51.198;4.468;2023-02-15T15:08:37;13.90;99.90
22706;DHT22;11520;51.198;4.468;2023-02-15T15:13:59;14.00;99.90
22706;DHT22;11520;51.198;4.468;2023-02-15T15:16:30;14.00;99.90
22706;DHT22;11520;51.198;4.468;2023-02-15T15:18:58;13.90;99.90
22706;DHT22;11520;51.198;4.468;2023-02-15T15:49:56;13.60;99.90
22706;DHT22;11520;51.198;4.468;2023-02-15T15:52:22;13.60;99.90
22706;DHT22;11520;51.198;4.468;2023-02-15T15:54:51;13.50;99.90
22706;DHT22;11520;51.198;4.468;2023-02-15T15:59:52;13.40;99.90
22706;DHT22;11520;51.198;4.468;2023-02-15T16:02:21;13.30;99.90
22706;DHT22;11520;51.198;4.468;2023-02-15T16:04:50;13.30;99.90
22706;DHT22;11520;51.198;4.468;2023-02-15T16:10:00;13.20;99.90
22706;DHT22;11520;51.198;4.468;2023-02-15T16:12:28;13.20;99.90
22706;DHT22;11520;51.198;4.468;2023-02-15T16:14:56;13.10;99.90
22706;DHT22;11520;51.198;4.468;2023-02-15T16:17:27;13.00;99.90
22706;DHT22;11520;51.198;4.468;2023-02-15T16:20:03;12.90;99.90
22706;DHT22;11520;51.198;4.468;2023-02-15T16:22:32;12.80;99.90
22706;DHT22;11520;51.198;4.468;2023-02-15T16:28:11;12.50;99.90
22706;DHT22;11520;51.198;4.468;2023-02-15T16:30:40;12.40;99.90
22706;DHT22;11520;51.198;4.468;2023-02-15T16:33:09;12.30;99.90
22706;DHT22;11520;51.198;4.468;2023-02-15T16:35:56;12.20;99.90
22706;DHT22;11520;51.198;4.468;2023-02-15T16:41:15;12.00;99.90
22706;DHT22;11520;51.198;4.468;2023-02-15T16:43:50;11.90;99.90
22706;DHT22;11520;51.198;4.468;2023-02-15T16:46:30;11.80;99.90
22706;DHT22;11520;51.198;4.468;2023-02-15T16:49:00;11.70;99.90
22706;DHT22;11520;51.198;4.468;2023-02-15T16:51:34;11.80;99.90
22706;DHT22;11520;51.198;4.468;2023-02-15T16:54:06;11.70;99.90
22706;DHT22;11520;51.198;4.468;2023-02-15T16:59:55;11.50;99.90
22706;DHT22;11520;51.198;4.468;2023-02-15T17:02:27;11.50;99.90
22706;DHT22;11520;51.198;4.468;2023-02-15T17:05:16;11.50;99.90
22706;DHT22;11520;51.198;4.468;2023-02-15T17:08:10;11.40;99.90
22706;DHT22;11520;51.198;4.468;2023-02-15T17:10:40;11.30;99.90
22706;DHT22;11520;51.198;4.468;2023-02-15T17:13:20;11.20;99.90
22706;DHT22;11520;51.198;4.468;2023-02-15T17:18:44;11.10;99.90
22706;DHT22;11520;51.198;4.468;2023-02-15T17:21:16;11.10;99.90
22706;DHT22;11520;51.198;4.468;2023-02-15T17:23:45;11.00;99.90
22706;DHT22;11520;51.198;4.468;2023-02-15T17:26:24;10.90;99.90
22706;DHT22;11520;51.198;4.468;2023-02-15T17:28:55;10.80;99.90
22706;DHT22;11520;51.198;4.468;2023-02-15T17:31:28;10.70;99.90
22706;DHT22;11520;51.198;4.468;2023-02-15T17:33:55;10.70;99.90
22706;DHT22;11520;51.198;4.468;2023-02-15T17:36:26;10.70;99.90
22706;DHT22;11520;51.198;4.468;2023-02-15T17:39:17;10.60;99.90
22706;DHT22;11520;51.198;4.468;2023-02-15T17:41:51;10.60;99.90
22706;DHT22;11520;51.198;4.468;2023-02-15T17:44:21;10.50;99.90
22706;DHT22;11520;51.198;4.468;2023-02-15T17:46:47;10.50;99.90
22706;DHT22;11520;51.198;4.468;2023-02-15T17:49:26;10.40;99.90
22706;DHT22;11520;51.198;4.468;2023-02-15T17:52:03;10.40;99.90
22706;DHT22;11520;51.198;4.468;2023-02-15T17:54:33;10.30;99.90
22706;DHT22;11520;51.198;4.468;2023-02-15T17:57:17;10.30;99.90
22706;DHT22;11520;51.198;4.468;2023-02-15T17:59:45;10.20;99.90
22706;DHT22;11520;51.198;4.468;2023-02-15T18:02:33;10.20;99.90
22706;DHT22;11520;51.198;4.468;2023-02-15T18:05:22;10.30;99.90
22706;DHT22;11520;51.198;4.468;2023-02-15T18:08:14;10.20;99.90
22706;DHT22;11520;51.198;4.468;2023-02-15T18:10:59;10.30;99.90
22706;DHT22;11520;51.198;4.468;2023-02-15T18:13:45;10.30;99.90
22706;DHT22;11520;51.198;4.468;2023-02-15T18:16:18;10.40;99.90
22706;DHT22;11520;51.198;4.468;2023-02-15T18:18:47;10.40;99.90
22706;DHT22;11520;51.198;4.468;2023-02-15T18:21:13;10.40;99.90
22706;DHT22;11520;51.198;4.468;2023-02-15T18:23:39;10.30;99.90
22706;DHT22;11520;51.198;4.468;2023-02-15T18:26:16;10.30;99.90
22706;DHT22;11520;51.198;4.468;2023-02-15T18:28:46;10.30;99.90
22706;DHT22;11520;51.198;4.468;2023-02-15T18:31:17;10.20;99.90
22706;DHT22;11520;51.198;4.468;2023-02-15T18:33:48;10.10;99.90
22706;DHT22;11520;51.198;4.468;2023-02-15T18:36:39;10.20;99.90
22706;DHT22;11520;51.198;4.468;2023-02-15T18:39:26;10.20;99.90
22706;DHT22;11520;51.198;4.468;2023-02-15T18:41:56;10.20;99.90
22706;DHT22;11520;51.198;4.468;2023-02-15T18:44:25;10.20;99.90
22706;DHT22;11520;51.198;4.468;2023-02-15T18:46:53;10.10;99.90
22706;DHT22;11520;51.198;4.468;2023-02-15T18:49:22;10.00;99.90
22706;DHT22;11520;51.198;4.468;2023-02-15T18:51:48;10.00;99.90
22706;DHT22;11520;51.198;4.468;2023-02-15T18:54:22;9.90;99.90
22706;DHT22;11520;51.198;4.468;2023-02-15T18:56:59;9.90;99.90
22706;DHT22;11520;51.198;4.468;2023-02-15T18:59:28;9.80;99.90
22706;DHT22;11520;51.198;4.468;2023-02-15T19:01:56;9.80;99.90
22706;DHT22;11520;51.198;4.468;2023-02-15T19:04:25;9.80;99.90
22706;DHT22;11520;51.198;4.468;2023-02-15T19:06:53;9.80;99.90
22706;DHT22;11520;51.198;4.468;2023-02-15T19:09:21;9.70;99.90
22706;DHT22;11520;51.198;4.468;2023-02-15T19:11:50;9.70;99.90
22706;DHT22;11520;51.198;4.468;2023-02-15T19:14:26;9.70;99.90
22706;DHT22;11520;51.198;4.468;2023-02-15T19:16:59;9.70;99.90
22706;DHT22;11520;51.198;4.468;2023-02-15T19:19:27;9.60;99.90
22706;DHT22;11520;51.198;4.468;2023-02-15T19:21:54;9.60;99.90
22706;DHT22;11520;51.198;4.468;2023-02-15T19:24:29;9.50;99.90
22706;DHT22;11520;51.198;4.468;2023-02-15T19:26:58;9.50;99.90
22706;DHT22;11520;51.198;4.468;2023-02-15T19:29:26;9.40;99.90
22706;DHT22;11520;51.198;4.468;2023-02-15T19:31:55;9.40;99.90
22706;DHT22;11520;51.198;4.468;2023-02-15T19:34:26;9.40;99.90
22706;DHT22;11520;51.198;4.468;2023-02-15T19:36:55;9.40;99.90
22706;DHT22;11520;51.198;4.468;2023-02-15T19:39:33;9.30;99.90
22706;DHT22;11520;51.198;4.468;2023-02-15T19:42:21;9.30;99.90
22706;DHT22;11520;51.198;4.468;2023-02-15T19:44:47;9.30;99.90
22706;DHT22;11520;51.198;4.468;2023-02-15T19:47:17;9.30;99.90
22706;DHT22;11520;51.198;4.468;2023-02-15T19:49:43;9.20;99.90
22706;DHT22;11520;51.198;4.468;2023-02-15T19:52:26;9.20;99.90
22706;DHT22;11520;51.198;4.468;2023-02-15T19:54:54;9.10;99.90
22706;DHT22;11520;51.198;4.468;2023-02-15T19:57:20;9.10;99.90
22706;DHT22;11520;51.198;4.468;2023-02-15T19:59:47;9.00;99.90
22706;DHT22;11520;51.198;4.468;2023-02-15T20:02:19;9.00;99.90
22706;DHT22;11520;51.198;4.468;2023-02-15T20:04:46;9.00;99.90
22706;DHT22;11520;51.198;4.468;2023-02-15T20:07:27;8.90;99.90
22706;DHT22;11520;51.198;4.468;2023-02-15T20:10:22;8.80;99.90
22706;DHT22;11520;51.198;4.468;2023-02-15T20:12:50;8.80;99.90
22706;DHT22;11520;51.198;4.468;2023-02-15T20:15:30;8.80;99.90
22706;DHT22;11520;51.198;4.468;2023-02-15T20:17:58;8.80;99.90
22706;DHT22;11520;51.198;4.468;2023-02-15T20:20:41;8.70;99.90
22706;DHT22;11520;51.198;4.468;2023-02-15T20:23:25;8.60;99.90
22706;DHT22;11520;51.198;4.468;2023-02-15T20:25:54;8.60;99.90
22706;DHT22;11520;51.198;4.468;2023-02-15T20:28:30;8.60;99.90
22706;DHT22;11520;51.198;4.468;2023-02-15T20:30:58;8.50;99.90
22706;DHT22;11520;51.198;4.468;2023-02-15T20:33:27;8.50;99.90
22706;DHT22;11520;51.198;4.468;2023-02-15T20:35:53;8.40;99.90
22706;DHT22;11520;51.198;4.468;2023-02-15T20:38:26;8.40;99.90
22706;DHT22;11520;51.198;4.468;2023-02-15T20:40:56;8.30;99.90
22706;DHT22;11520;51.198;4.468;2023-02-15T20:43:57;8.40;99.90
22706;DHT22;11520;51.198;4.468;2023-02-15T20:46:56;8.30;99.90
22706;DHT22;11520;51.198;4.468;2023-02-15T20:49:25;8.30;99.90
22706;DHT22;11520;51.198;4.468;2023-02-15T20:51:53;8.20;99.90
22706;DHT22;11520;51.198;4.468;2023-02-15T20:54:25;8.20;99.90
22706;DHT22;11520;51.198;4.468;2023-02-15T20:56:51;8.20;99.90
22706;DHT22;11520;51.198;4.468;2023-02-15T20:59:24;8.10;99.90